This is the latest recevied weather packets stored in our database for station/object YREN. If no packets are shown the sender has not sent any weather packets the latest 10 day(s).
| Time | Temp. | Humidity | Pressure | Rain* | Wind** | Luminosity | Snow |
|---|---|---|---|---|---|---|---|
| 1788449704 | 7.78° C | 92% | 1020.6 hPa | 0 mm | - | - | - |
| 1788437104 | 11.67° C | 90% | 1021.8 hPa | 0 mm | - | - | - |
| 1788434404 | 12.22° C | 86% | 1021.1 hPa | 0 mm | - | - | - |
| 1788433504 | 12.22° C | 86% | 1021.1 hPa | 0 mm | - | - | - |
| 1788432604 | 13.89° C | 81% | 1020.8 hPa | 0 mm | - | - | - |
| 1788431704 | 13.89° C | 81% | 1020.8 hPa | 0 mm | - | - | - |
| 1788430804 | 13.89° C | 82% | 1020.5 hPa | 0 mm | - | - | - |
| 1788429903 | 13.89° C | 82% | 1020.5 hPa | 0 mm | - | - | - |
| 1788428104 | 14.44° C | 77% | 1020.1 hPa | 0 mm | - | - | - |
| 1788427204 | 15° C | 74% | 1019.7 hPa | 0 mm | - | - | - |
| 1788426304 | 15° C | 74% | 1019.7 hPa | 0 mm | - | - | - |
| 1788424504 | 16.11° C | 69% | 1019.3 hPa | 0 mm | - | - | - |
| 1788423604 | 17.22° C | 64% | 1019 hPa | 0 mm | - | - | - |
| 1788422704 | 17.22° C | 64% | 1019 hPa | 0 mm | - | - | - |
| 1788421804 | 18.33° C | 59% | 1018.7 hPa | 0 mm | - | - | - |
| 1788420904 | 18.33° C | 59% | 1018.7 hPa | 0 mm | - | - | - |
| 1788420004 | 19.44° C | 55% | 1018.3 hPa | 0 mm | - | - | - |
| 1788419104 | 19.44° C | 55% | 1018.3 hPa | 0 mm | - | - | - |
| 1788418204 | 20° C | 53% | 1018.2 hPa | 0 mm | - | - | - |
| 1788417304 | 20° C | 53% | 1018.2 hPa | 0 mm | - | - | - |
| 1788416404 | 20.56° C | 53% | 1018.1 hPa | 0 mm | - | - | - |
| 1788415504 | 20.56° C | 53% | 1018.1 hPa | 0 mm | - | - | - |
| 1788414604 | 18.89° C | 56% | 1017.9 hPa | 0 mm | - | - | - |
| 1788413704 | 18.89° C | 56% | 1017.9 hPa | 0 mm | - | - | - |
| 1788412804 | 19.44° C | 55% | 1017.9 hPa | 0 mm | - | - | - |
* Rain latest hour (hover to see other rain measurements)
** Current wind speed in m/s (hover to see current wind gust speed)